sensor_id;sensor_type;location;lat;lon;timestamp;P1;durP1;ratioP1;P2;durP2;ratioP2
37787;SDS011;23627;53.302;-6.362;2022-08-19T00:01:29;9.13;;;1.92;;
37787;SDS011;23627;53.302;-6.362;2022-08-19T00:03:55;13.70;;;2.10;;
37787;SDS011;23627;53.302;-6.362;2022-08-19T00:06:26;8.77;;;1.75;;
37787;SDS011;23627;53.302;-6.362;2022-08-19T00:08:53;8.65;;;1.80;;
37787;SDS011;23627;53.302;-6.362;2022-08-19T00:11:19;9.65;;;2.10;;
37787;SDS011;23627;53.302;-6.362;2022-08-19T00:13:45;9.32;;;2.13;;
37787;SDS011;23627;53.302;-6.362;2022-08-19T00:16:13;9.63;;;2.60;;
37787;SDS011;23627;53.302;-6.362;2022-08-19T00:18:39;8.80;;;1.60;;
37787;SDS011;23627;53.302;-6.362;2022-08-19T00:21:05;14.32;;;2.35;;
37787;SDS011;23627;53.302;-6.362;2022-08-19T00:23:33;10.82;;;1.77;;
37787;SDS011;23627;53.302;-6.362;2022-08-19T00:26:01;10.52;;;1.80;;
37787;SDS011;23627;53.302;-6.362;2022-08-19T00:28:30;11.88;;;2.63;;
37787;SDS011;23627;53.302;-6.362;2022-08-19T00:30:57;13.73;;;2.25;;
37787;SDS011;23627;53.302;-6.362;2022-08-19T00:33:24;10.77;;;2.08;;
37787;SDS011;23627;53.302;-6.362;2022-08-19T00:35:50;10.88;;;1.67;;
37787;SDS011;23627;53.302;-6.362;2022-08-19T00:38:15;9.82;;;2.42;;
37787;SDS011;23627;53.302;-6.362;2022-08-19T00:40:44;11.90;;;2.05;;
37787;SDS011;23627;53.302;-6.362;2022-08-19T00:43:12;13.88;;;2.28;;
37787;SDS011;23627;53.302;-6.362;2022-08-19T00:45:42;8.45;;;1.95;;
37787;SDS011;23627;53.302;-6.362;2022-08-19T00:48:09;11.18;;;2.03;;
37787;SDS011;23627;53.302;-6.362;2022-08-19T00:50:35;9.93;;;1.70;;
37787;SDS011;23627;53.302;-6.362;2022-08-19T00:53:05;8.73;;;1.90;;
37787;SDS011;23627;53.302;-6.362;2022-08-19T00:55:32;9.90;;;2.10;;
37787;SDS011;23627;53.302;-6.362;2022-08-19T00:58:00;10.75;;;2.08;;
37787;SDS011;23627;53.302;-6.362;2022-08-19T01:00:30;10.60;;;2.03;;
37787;SDS011;23627;53.302;-6.362;2022-08-19T01:02:57;11.32;;;1.92;;
37787;SDS011;23627;53.302;-6.362;2022-08-19T01:05:24;10.85;;;2.95;;
37787;SDS011;23627;53.302;-6.362;2022-08-19T01:07:53;8.95;;;1.80;;
37787;SDS011;23627;53.302;-6.362;2022-08-19T01:10:21;10.35;;;1.85;;
37787;SDS011;23627;53.302;-6.362;2022-08-19T01:12:50;10.98;;;2.28;;
37787;SDS011;23627;53.302;-6.362;2022-08-19T01:15:18;11.45;;;1.83;;
37787;SDS011;23627;53.302;-6.362;2022-08-19T01:17:49;11.75;;;2.00;;
37787;SDS011;23627;53.302;-6.362;2022-08-19T01:20:19;10.80;;;1.92;;
37787;SDS011;23627;53.302;-6.362;2022-08-19T01:22:51;10.30;;;2.13;;
37787;SDS011;23627;53.302;-6.362;2022-08-19T01:25:20;12.75;;;2.15;;
37787;SDS011;23627;53.302;-6.362;2022-08-19T01:27:50;10.15;;;1.85;;
37787;SDS011;23627;53.302;-6.362;2022-08-19T01:30:19;11.50;;;2.00;;
37787;SDS011;23627;53.302;-6.362;2022-08-19T01:32:49;11.95;;;2.25;;
37787;SDS011;23627;53.302;-6.362;2022-08-19T01:35:15;9.35;;;1.88;;
37787;SDS011;23627;53.302;-6.362;2022-08-19T01:37:48;10.60;;;2.20;;
37787;SDS011;23627;53.302;-6.362;2022-08-19T01:40:16;11.02;;;1.92;;
37787;SDS011;23627;53.302;-6.362;2022-08-19T01:42:45;14.75;;;2.13;;
37787;SDS011;23627;53.302;-6.362;2022-08-19T01:45:13;11.30;;;2.20;;
37787;SDS011;23627;53.302;-6.362;2022-08-19T01:47:39;11.00;;;2.38;;
37787;SDS011;23627;53.302;-6.362;2022-08-19T01:50:06;9.27;;;1.98;;
37787;SDS011;23627;53.302;-6.362;2022-08-19T01:52:37;13.40;;;2.63;;
37787;SDS011;23627;53.302;-6.362;2022-08-19T01:55:05;11.40;;;2.10;;
37787;SDS011;23627;53.302;-6.362;2022-08-19T01:57:33;7.47;;;1.85;;
37787;SDS011;23627;53.302;-6.362;2022-08-19T01:59:59;11.05;;;2.05;;
37787;SDS011;23627;53.302;-6.362;2022-08-19T02:02:27;12.20;;;1.70;;
37787;SDS011;23627;53.302;-6.362;2022-08-19T02:04:52;9.48;;;2.00;;
37787;SDS011;23627;53.302;-6.362;2022-08-19T02:07:19;11.85;;;2.00;;
37787;SDS011;23627;53.302;-6.362;2022-08-19T02:09:46;10.98;;;2.20;;
37787;SDS011;23627;53.302;-6.362;2022-08-19T02:12:13;13.70;;;2.00;;
37787;SDS011;23627;53.302;-6.362;2022-08-19T02:14:39;9.93;;;2.20;;
37787;SDS011;23627;53.302;-6.362;2022-08-19T02:17:05;12.20;;;2.50;;
37787;SDS011;23627;53.302;-6.362;2022-08-19T02:19:31;14.23;;;2.50;;
37787;SDS011;23627;53.302;-6.362;2022-08-19T02:21:58;11.98;;;2.17;;
37787;SDS011;23627;53.302;-6.362;2022-08-19T02:24:24;9.25;;;2.10;;
37787;SDS011;23627;53.302;-6.362;2022-08-19T02:26:50;10.23;;;2.38;;
37787;SDS011;23627;53.302;-6.362;2022-08-19T02:29:16;9.93;;;1.75;;
37787;SDS011;23627;53.302;-6.362;2022-08-19T02:31:42;13.52;;;2.30;;
37787;SDS011;23627;53.302;-6.362;2022-08-19T02:34:08;9.85;;;1.90;;
37787;SDS011;23627;53.302;-6.362;2022-08-19T02:36:33;11.45;;;2.20;;
37787;SDS011;23627;53.302;-6.362;2022-08-19T02:38:59;8.60;;;2.13;;
37787;SDS011;23627;53.302;-6.362;2022-08-19T02:41:26;9.13;;;1.90;;
37787;SDS011;23627;53.302;-6.362;2022-08-19T02:43:56;10.45;;;1.85;;
37787;SDS011;23627;53.302;-6.362;2022-08-19T02:46:26;10.02;;;2.08;;
37787;SDS011;23627;53.302;-6.362;2022-08-19T02:48:56;8.25;;;1.73;;
37787;SDS011;23627;53.302;-6.362;2022-08-19T02:51:24;11.73;;;2.13;;
37787;SDS011;23627;53.302;-6.362;2022-08-19T02:53:57;11.38;;;2.13;;
37787;SDS011;23627;53.302;-6.362;2022-08-19T02:56:24;9.70;;;2.05;;
37787;SDS011;23627;53.302;-6.362;2022-08-19T02:58:52;8.15;;;1.58;;
37787;SDS011;23627;53.302;-6.362;2022-08-19T03:01:27;13.00;;;1.70;;
37787;SDS011;23627;53.302;-6.362;2022-08-19T03:03:58;13.20;;;2.10;;
37787;SDS011;23627;53.302;-6.362;2022-08-19T03:06:25;10.75;;;1.85;;
37787;SDS011;23627;53.302;-6.362;2022-08-19T03:08:52;11.02;;;2.08;;
37787;SDS011;23627;53.302;-6.362;2022-08-19T03:13:45;8.45;;;1.65;;
37787;SDS011;23627;53.302;-6.362;2022-08-19T03:16:11;8.10;;;1.50;;
37787;SDS011;23627;53.302;-6.362;2022-08-19T03:18:38;9.48;;;1.65;;
37787;SDS011;23627;53.302;-6.362;2022-08-19T03:21:04;8.65;;;1.77;;
37787;SDS011;23627;53.302;-6.362;2022-08-19T03:23:30;9.57;;;1.50;;
37787;SDS011;23627;53.302;-6.362;2022-08-19T03:25:56;6.97;;;1.40;;
37787;SDS011;23627;53.302;-6.362;2022-08-19T03:28:22;10.85;;;2.00;;
37787;SDS011;23627;53.302;-6.362;2022-08-19T03:30:55;6.78;;;1.60;;
37787;SDS011;23627;53.302;-6.362;2022-08-19T03:33:27;8.30;;;1.80;;
37787;SDS011;23627;53.302;-6.362;2022-08-19T03:36:05;11.07;;;1.73;;
37787;SDS011;23627;53.302;-6.362;2022-08-19T03:38:43;10.45;;;1.75;;
37787;SDS011;23627;53.302;-6.362;2022-08-19T03:41:14;7.32;;;1.25;;
37787;SDS011;23627;53.302;-6.362;2022-08-19T03:43:43;10.32;;;1.50;;
37787;SDS011;23627;53.302;-6.362;2022-08-19T03:46:12;6.93;;;1.92;;
37787;SDS011;23627;53.302;-6.362;2022-08-19T03:48:41;8.43;;;1.30;;
37787;SDS011;23627;53.302;-6.362;2022-08-19T03:51:15;8.73;;;1.30;;
37787;SDS011;23627;53.302;-6.362;2022-08-19T03:53:46;8.18;;;1.70;;
37787;SDS011;23627;53.302;-6.362;2022-08-19T03:56:12;7.65;;;1.25;;
37787;SDS011;23627;53.302;-6.362;2022-08-19T03:58:39;7.72;;;1.20;;
37787;SDS011;23627;53.302;-6.362;2022-08-19T04:01:09;7.40;;;1.40;;
37787;SDS011;23627;53.302;-6.362;2022-08-19T04:03:37;8.30;;;1.58;;
37787;SDS011;23627;53.302;-6.362;2022-08-19T04:06:10;8.90;;;1.33;;
37787;SDS011;23627;53.302;-6.362;2022-08-19T04:08:40;10.30;;;1.40;;
37787;SDS011;23627;53.302;-6.362;2022-08-19T04:11:08;9.73;;;1.50;;
37787;SDS011;23627;53.302;-6.362;2022-08-19T04:13:35;5.32;;;1.00;;
37787;SDS011;23627;53.302;-6.362;2022-08-19T04:16:01;7.05;;;1.40;;
37787;SDS011;23627;53.302;-6.362;2022-08-19T04:18:27;7.78;;;1.27;;
37787;SDS011;23627;53.302;-6.362;2022-08-19T04:20:55;6.95;;;1.50;;
37787;SDS011;23627;53.302;-6.362;2022-08-19T04:23:22;8.05;;;1.65;;
37787;SDS011;23627;53.302;-6.362;2022-08-19T04:25:48;8.55;;;1.33;;
37787;SDS011;23627;53.302;-6.362;2022-08-19T04:28:14;11.35;;;1.35;;
37787;SDS011;23627;53.302;-6.362;2022-08-19T04:30:44;8.18;;;1.50;;
37787;SDS011;23627;53.302;-6.362;2022-08-19T04:33:12;10.07;;;1.50;;
37787;SDS011;23627;53.302;-6.362;2022-08-19T04:35:40;7.38;;;1.58;;
37787;SDS011;23627;53.302;-6.362;2022-08-19T04:38:11;8.80;;;1.23;;
37787;SDS011;23627;53.302;-6.362;2022-08-19T04:40:41;6.03;;;1.35;;
37787;SDS011;23627;53.302;-6.362;2022-08-19T04:43:27;7.47;;;1.30;;
37787;SDS011;23627;53.302;-6.362;2022-08-19T04:45:54;7.97;;;1.23;;
37787;SDS011;23627;53.302;-6.362;2022-08-19T04:48:20;10.68;;;2.13;;
37787;SDS011;23627;53.302;-6.362;2022-08-19T04:50:50;7.68;;;1.55;;
37787;SDS011;23627;53.302;-6.362;2022-08-19T04:53:23;5.53;;;1.00;;
37787;SDS011;23627;53.302;-6.362;2022-08-19T04:55:54;5.90;;;1.00;;
37787;SDS011;23627;53.302;-6.362;2022-08-19T04:58:21;6.85;;;1.45;;
37787;SDS011;23627;53.302;-6.362;2022-08-19T05:00:48;5.63;;;1.30;;
37787;SDS011;23627;53.302;-6.362;2022-08-19T05:03:14;7.97;;;1.42;;
37787;SDS011;23627;53.302;-6.362;2022-08-19T05:05:43;6.85;;;1.30;;
37787;SDS011;23627;53.302;-6.362;2022-08-19T05:08:10;9.02;;;1.17;;
37787;SDS011;23627;53.302;-6.362;2022-08-19T05:10:44;11.82;;;1.42;;
37787;SDS011;23627;53.302;-6.362;2022-08-19T05:13:10;5.43;;;1.10;;
37787;SDS011;23627;53.302;-6.362;2022-08-19T05:15:36;7.32;;;1.10;;
37787;SDS011;23627;53.302;-6.362;2022-08-19T05:18:02;6.40;;;1.27;;
37787;SDS011;23627;53.302;-6.362;2022-08-19T05:20:46;5.80;;;1.17;;
37787;SDS011;23627;53.302;-6.362;2022-08-19T05:23:30;5.97;;;1.00;;
37787;SDS011;23627;53.302;-6.362;2022-08-19T05:25:56;5.00;;;1.00;;
37787;SDS011;23627;53.302;-6.362;2022-08-19T05:28:22;4.50;;;1.00;;
37787;SDS011;23627;53.302;-6.362;2022-08-19T05:30:47;7.53;;;1.10;;
37787;SDS011;23627;53.302;-6.362;2022-08-19T05:33:15;5.75;;;0.90;;
37787;SDS011;23627;53.302;-6.362;2022-08-19T05:35:41;7.47;;;1.40;;
37787;SDS011;23627;53.302;-6.362;2022-08-19T05:38:09;6.82;;;1.30;;
37787;SDS011;23627;53.302;-6.362;2022-08-19T05:40:36;4.50;;;0.88;;
37787;SDS011;23627;53.302;-6.362;2022-08-19T05:43:04;5.63;;;0.90;;
37787;SDS011;23627;53.302;-6.362;2022-08-19T05:45:31;6.40;;;1.10;;
37787;SDS011;23627;53.302;-6.362;2022-08-19T05:47:57;5.15;;;1.10;;
37787;SDS011;23627;53.302;-6.362;2022-08-19T05:50:23;5.38;;;1.30;;
37787;SDS011;23627;53.302;-6.362;2022-08-19T05:52:51;7.20;;;1.63;;
37787;SDS011;23627;53.302;-6.362;2022-08-19T05:55:17;6.22;;;1.27;;
37787;SDS011;23627;53.302;-6.362;2022-08-19T05:57:45;5.70;;;1.13;;
37787;SDS011;23627;53.302;-6.362;2022-08-19T06:00:11;6.40;;;1.10;;
37787;SDS011;23627;53.302;-6.362;2022-08-19T06:02:38;5.45;;;1.25;;
37787;SDS011;23627;53.302;-6.362;2022-08-19T06:05:04;6.57;;;1.30;;
37787;SDS011;23627;53.302;-6.362;2022-08-19T06:07:33;5.03;;;1.02;;
37787;SDS011;23627;53.302;-6.362;2022-08-19T06:10:06;9.88;;;1.20;;
37787;SDS011;23627;53.302;-6.362;2022-08-19T06:12:36;3.63;;;0.80;;
37787;SDS011;23627;53.302;-6.362;2022-08-19T06:15:04;6.25;;;1.10;;
37787;SDS011;23627;53.302;-6.362;2022-08-19T06:17:35;6.78;;;1.00;;
37787;SDS011;23627;53.302;-6.362;2022-08-19T06:20:03;3.53;;;0.80;;
37787;SDS011;23627;53.302;-6.362;2022-08-19T06:22:37;6.78;;;1.02;;
37787;SDS011;23627;53.302;-6.362;2022-08-19T06:25:09;6.57;;;0.80;;
37787;SDS011;23627;53.302;-6.362;2022-08-19T06:27:36;5.05;;;0.85;;
37787;SDS011;23627;53.302;-6.362;2022-08-19T06:30:03;5.78;;;1.52;;
37787;SDS011;23627;53.302;-6.362;2022-08-19T06:32:30;5.28;;;1.13;;
37787;SDS011;23627;53.302;-6.362;2022-08-19T06:34:56;5.85;;;1.20;;
37787;SDS011;23627;53.302;-6.362;2022-08-19T06:37:22;4.05;;;0.88;;
37787;SDS011;23627;53.302;-6.362;2022-08-19T06:39:48;4.18;;;1.10;;
37787;SDS011;23627;53.302;-6.362;2022-08-19T06:42:14;4.28;;;0.82;;
37787;SDS011;23627;53.302;-6.362;2022-08-19T06:44:44;4.00;;;1.02;;
37787;SDS011;23627;53.302;-6.362;2022-08-19T06:47:15;3.63;;;0.75;;
37787;SDS011;23627;53.302;-6.362;2022-08-19T06:49:43;4.20;;;0.73;;
37787;SDS011;23627;53.302;-6.362;2022-08-19T06:52:11;3.55;;;0.60;;
37787;SDS011;23627;53.302;-6.362;2022-08-19T06:54:38;4.35;;;1.13;;
37787;SDS011;23627;53.302;-6.362;2022-08-19T06:57:04;6.35;;;0.80;;
37787;SDS011;23627;53.302;-6.362;2022-08-19T06:59:32;3.47;;;0.80;;
37787;SDS011;23627;53.302;-6.362;2022-08-19T07:01:59;8.05;;;1.45;;
37787;SDS011;23627;53.302;-6.362;2022-08-19T07:04:27;5.65;;;1.10;;
37787;SDS011;23627;53.302;-6.362;2022-08-19T07:06:58;6.82;;;1.15;;
37787;SDS011;23627;53.302;-6.362;2022-08-19T07:09:25;5.80;;;1.17;;
37787;SDS011;23627;53.302;-6.362;2022-08-19T07:11:52;3.75;;;0.82;;
37787;SDS011;23627;53.302;-6.362;2022-08-19T07:14:20;4.10;;;0.70;;
37787;SDS011;23627;53.302;-6.362;2022-08-19T07:16:50;5.30;;;0.75;;
37787;SDS011;23627;53.302;-6.362;2022-08-19T07:19:18;4.63;;;1.08;;
37787;SDS011;23627;53.302;-6.362;2022-08-19T07:21:45;3.55;;;0.73;;
37787;SDS011;23627;53.302;-6.362;2022-08-19T07:24:12;7.95;;;1.10;;
37787;SDS011;23627;53.302;-6.362;2022-08-19T07:26:40;4.07;;;0.75;;
37787;SDS011;23627;53.302;-6.362;2022-08-19T07:29:07;2.30;;;0.77;;
37787;SDS011;23627;53.302;-6.362;2022-08-19T07:31:33;6.75;;;0.95;;
37787;SDS011;23627;53.302;-6.362;2022-08-19T07:34:01;4.88;;;0.60;;
37787;SDS011;23627;53.302;-6.362;2022-08-19T07:36:31;2.50;;;0.55;;
37787;SDS011;23627;53.302;-6.362;2022-08-19T07:39:00;4.38;;;0.80;;
37787;SDS011;23627;53.302;-6.362;2022-08-19T07:41:28;5.53;;;0.60;;
37787;SDS011;23627;53.302;-6.362;2022-08-19T07:43:55;4.30;;;0.80;;
37787;SDS011;23627;53.302;-6.362;2022-08-19T07:46:21;3.47;;;0.70;;
37787;SDS011;23627;53.302;-6.362;2022-08-19T07:48:48;5.00;;;0.98;;
37787;SDS011;23627;53.302;-6.362;2022-08-19T07:51:20;6.20;;;0.98;;
37787;SDS011;23627;53.302;-6.362;2022-08-19T07:53:46;4.10;;;0.82;;
37787;SDS011;23627;53.302;-6.362;2022-08-19T07:56:16;4.55;;;0.77;;
37787;SDS011;23627;53.302;-6.362;2022-08-19T07:58:44;4.70;;;0.80;;
37787;SDS011;23627;53.302;-6.362;2022-08-19T08:01:13;4.10;;;0.70;;
37787;SDS011;23627;53.302;-6.362;2022-08-19T08:03:41;5.60;;;1.00;;
37787;SDS011;23627;53.302;-6.362;2022-08-19T08:06:26;4.30;;;0.70;;
37787;SDS011;23627;53.302;-6.362;2022-08-19T08:09:11;3.45;;;0.57;;
37787;SDS011;23627;53.302;-6.362;2022-08-19T08:11:37;4.80;;;0.82;;
37787;SDS011;23627;53.302;-6.362;2022-08-19T08:14:05;4.47;;;0.88;;
37787;SDS011;23627;53.302;-6.362;2022-08-19T08:16:35;4.93;;;0.98;;
37787;SDS011;23627;53.302;-6.362;2022-08-19T08:19:06;6.07;;;0.90;;
37787;SDS011;23627;53.302;-6.362;2022-08-19T08:21:32;3.83;;;0.85;;
37787;SDS011;23627;53.302;-6.362;2022-08-19T08:23:58;5.60;;;0.95;;
37787;SDS011;23627;53.302;-6.362;2022-08-19T08:26:24;4.82;;;0.95;;
37787;SDS011;23627;53.302;-6.362;2022-08-19T08:28:51;3.00;;;0.73;;
37787;SDS011;23627;53.302;-6.362;2022-08-19T08:31:18;4.32;;;0.70;;
37787;SDS011;23627;53.302;-6.362;2022-08-19T08:33:44;5.03;;;0.93;;
37787;SDS011;23627;53.302;-6.362;2022-08-19T08:36:10;4.07;;;0.80;;
37787;SDS011;23627;53.302;-6.362;2022-08-19T08:38:39;7.07;;;1.55;;
37787;SDS011;23627;53.302;-6.362;2022-08-19T08:44:06;3.17;;;0.82;;
37787;SDS011;23627;53.302;-6.362;2022-08-19T08:51:52;2.70;;;0.82;;
37787;SDS011;23627;53.302;-6.362;2022-08-19T08:54:25;3.38;;;0.70;;
37787;SDS011;23627;53.302;-6.362;2022-08-19T08:57:18;5.47;;;0.75;;
37787;SDS011;23627;53.302;-6.362;2022-08-19T08:59:55;3.58;;;0.75;;
37787;SDS011;23627;53.302;-6.362;2022-08-19T09:02:23;3.83;;;0.60;;
37787;SDS011;23627;53.302;-6.362;2022-08-19T09:04:49;2.72;;;0.50;;
37787;SDS011;23627;53.302;-6.362;2022-08-19T09:10:10;1.98;;;0.40;;
37787;SDS011;23627;53.302;-6.362;2022-08-19T09:15:40;5.72;;;0.85;;
37787;SDS011;23627;53.302;-6.362;2022-08-19T09:18:10;4.43;;;0.70;;
37787;SDS011;23627;53.302;-6.362;2022-08-19T09:20:37;3.58;;;0.77;;
37787;SDS011;23627;53.302;-6.362;2022-08-19T09:23:02;3.97;;;0.90;;
37787;SDS011;23627;53.302;-6.362;2022-08-19T09:25:29;4.10;;;0.65;;
37787;SDS011;23627;53.302;-6.362;2022-08-19T09:27:57;3.65;;;0.82;;
37787;SDS011;23627;53.302;-6.362;2022-08-19T09:30:30;4.10;;;0.75;;
37787;SDS011;23627;53.302;-6.362;2022-08-19T09:33:04;2.60;;;0.63;;
37787;SDS011;23627;53.302;-6.362;2022-08-19T09:35:32;4.57;;;0.82;;
37787;SDS011;23627;53.302;-6.362;2022-08-19T09:37:58;4.32;;;0.77;;
37787;SDS011;23627;53.302;-6.362;2022-08-19T09:40:24;3.90;;;0.68;;
37787;SDS011;23627;53.302;-6.362;2022-08-19T09:42:52;3.33;;;0.80;;
37787;SDS011;23627;53.302;-6.362;2022-08-19T09:45:19;6.70;;;0.90;;
37787;SDS011;23627;53.302;-6.362;2022-08-19T09:47:47;2.90;;;0.60;;
37787;SDS011;23627;53.302;-6.362;2022-08-19T09:50:13;3.22;;;0.80;;
37787;SDS011;23627;53.302;-6.362;2022-08-19T09:52:39;4.30;;;0.88;;
37787;SDS011;23627;53.302;-6.362;2022-08-19T09:55:08;3.90;;;0.80;;
37787;SDS011;23627;53.302;-6.362;2022-08-19T09:57:36;5.53;;;0.68;;
37787;SDS011;23627;53.302;-6.362;2022-08-19T10:00:05;3.42;;;0.70;;
37787;SDS011;23627;53.302;-6.362;2022-08-19T10:02:33;4.93;;;1.17;;
37787;SDS011;23627;53.302;-6.362;2022-08-19T10:05:00;2.97;;;0.82;;
37787;SDS011;23627;53.302;-6.362;2022-08-19T10:07:46;3.22;;;0.65;;
37787;SDS011;23627;53.302;-6.362;2022-08-19T10:10:12;3.40;;;0.70;;
37787;SDS011;23627;53.302;-6.362;2022-08-19T10:12:38;1.83;;;0.70;;
37787;SDS011;23627;53.302;-6.362;2022-08-19T10:15:04;4.50;;;0.82;;
37787;SDS011;23627;53.302;-6.362;2022-08-19T10:17:31;7.00;;;1.00;;
37787;SDS011;23627;53.302;-6.362;2022-08-19T10:20:04;3.05;;;0.50;;
37787;SDS011;23627;53.302;-6.362;2022-08-19T10:22:31;3.60;;;0.80;;
37787;SDS011;23627;53.302;-6.362;2022-08-19T10:24:57;1.98;;;0.50;;
37787;SDS011;23627;53.302;-6.362;2022-08-19T10:27:23;3.45;;;0.90;;
37787;SDS011;23627;53.302;-6.362;2022-08-19T10:29:49;3.85;;;0.73;;
37787;SDS011;23627;53.302;-6.362;2022-08-19T10:32:14;3.63;;;0.80;;
37787;SDS011;23627;53.302;-6.362;2022-08-19T10:34:40;5.35;;;0.82;;
37787;SDS011;23627;53.302;-6.362;2022-08-19T10:37:06;2.97;;;0.85;;
37787;SDS011;23627;53.302;-6.362;2022-08-19T10:39:33;4.20;;;0.80;;
37787;SDS011;23627;53.302;-6.362;2022-08-19T10:42:06;3.67;;;0.82;;
37787;SDS011;23627;53.302;-6.362;2022-08-19T10:44:35;5.40;;;0.90;;
37787;SDS011;23627;53.302;-6.362;2022-08-19T10:47:02;4.80;;;1.10;;
37787;SDS011;23627;53.302;-6.362;2022-08-19T10:49:28;5.93;;;0.90;;
37787;SDS011;23627;53.302;-6.362;2022-08-19T10:51:55;3.70;;;0.88;;
37787;SDS011;23627;53.302;-6.362;2022-08-19T10:54:40;3.08;;;0.95;;
37787;SDS011;23627;53.302;-6.362;2022-08-19T10:57:25;5.05;;;1.25;;
37787;SDS011;23627;53.302;-6.362;2022-08-19T10:59:55;4.38;;;1.05;;
37787;SDS011;23627;53.302;-6.362;2022-08-19T11:02:21;5.68;;;0.90;;
37787;SDS011;23627;53.302;-6.362;2022-08-19T11:04:47;7.65;;;0.73;;
37787;SDS011;23627;53.302;-6.362;2022-08-19T11:07:14;3.78;;;0.73;;
37787;SDS011;23627;53.302;-6.362;2022-08-19T11:09:41;3.58;;;0.77;;
37787;SDS011;23627;53.302;-6.362;2022-08-19T11:12:08;3.38;;;0.70;;
37787;SDS011;23627;53.302;-6.362;2022-08-19T11:14:34;3.90;;;1.23;;
37787;SDS011;23627;53.302;-6.362;2022-08-19T11:17:01;3.00;;;0.93;;
37787;SDS011;23627;53.302;-6.362;2022-08-19T11:19:29;4.93;;;0.90;;
37787;SDS011;23627;53.302;-6.362;2022-08-19T11:21:58;6.85;;;0.73;;
37787;SDS011;23627;53.302;-6.362;2022-08-19T11:24:27;4.10;;;0.80;;
37787;SDS011;23627;53.302;-6.362;2022-08-19T11:26:54;6.43;;;0.90;;
37787;SDS011;23627;53.302;-6.362;2022-08-19T11:29:29;4.10;;;0.85;;
37787;SDS011;23627;53.302;-6.362;2022-08-19T11:31:55;5.03;;;0.75;;
37787;SDS011;23627;53.302;-6.362;2022-08-19T11:34:23;4.38;;;0.90;;
37787;SDS011;23627;53.302;-6.362;2022-08-19T11:36:52;3.60;;;0.80;;
37787;SDS011;23627;53.302;-6.362;2022-08-19T11:39:20;3.67;;;0.95;;
37787;SDS011;23627;53.302;-6.362;2022-08-19T11:41:47;4.40;;;1.10;;
37787;SDS011;23627;53.302;-6.362;2022-08-19T11:44:13;5.20;;;1.20;;
37787;SDS011;23627;53.302;-6.362;2022-08-19T11:46:40;4.50;;;1.30;;
37787;SDS011;23627;53.302;-6.362;2022-08-19T11:49:11;3.67;;;0.90;;
37787;SDS011;23627;53.302;-6.362;2022-08-19T11:54:10;3.65;;;1.33;;
37787;SDS011;23627;53.302;-6.362;2022-08-19T11:56:41;4.90;;;1.30;;
37787;SDS011;23627;53.302;-6.362;2022-08-19T11:59:07;5.05;;;1.30;;
37787;SDS011;23627;53.302;-6.362;2022-08-19T12:01:33;5.97;;;1.40;;
37787;SDS011;23627;53.302;-6.362;2022-08-19T12:03:59;4.47;;;1.50;;
37787;SDS011;23627;53.302;-6.362;2022-08-19T12:06:29;5.40;;;1.42;;
37787;SDS011;23627;53.302;-6.362;2022-08-19T12:08:57;3.78;;;1.10;;
37787;SDS011;23627;53.302;-6.362;2022-08-19T12:11:25;6.85;;;1.30;;
37787;SDS011;23627;53.302;-6.362;2022-08-19T12:13:51;3.50;;;0.93;;
37787;SDS011;23627;53.302;-6.362;2022-08-19T12:16:20;6.63;;;1.30;;
37787;SDS011;23627;53.302;-6.362;2022-08-19T12:18:48;5.00;;;1.10;;
37787;SDS011;23627;53.302;-6.362;2022-08-19T12:21:16;5.88;;;1.23;;
37787;SDS011;23627;53.302;-6.362;2022-08-19T12:23:47;4.80;;;1.30;;
37787;SDS011;23627;53.302;-6.362;2022-08-19T12:26:16;5.40;;;1.40;;
37787;SDS011;23627;53.302;-6.362;2022-08-19T12:28:42;4.30;;;1.65;;
37787;SDS011;23627;53.302;-6.362;2022-08-19T12:31:09;4.20;;;1.45;;
37787;SDS011;23627;53.302;-6.362;2022-08-19T12:33:37;3.85;;;1.17;;
37787;SDS011;23627;53.302;-6.362;2022-08-19T12:36:04;7.07;;;1.20;;
37787;SDS011;23627;53.302;-6.362;2022-08-19T12:38:32;3.60;;;1.20;;
37787;SDS011;23627;53.302;-6.362;2022-08-19T12:40:59;7.00;;;1.30;;
37787;SDS011;23627;53.302;-6.362;2022-08-19T12:43:26;4.93;;;1.90;;
37787;SDS011;23627;53.302;-6.362;2022-08-19T12:45:52;4.38;;;1.70;;
37787;SDS011;23627;53.302;-6.362;2022-08-19T12:48:18;6.03;;;1.58;;
37787;SDS011;23627;53.302;-6.362;2022-08-19T12:50:47;6.18;;;1.70;;
37787;SDS011;23627;53.302;-6.362;2022-08-19T12:53:13;4.43;;;1.30;;
37787;SDS011;23627;53.302;-6.362;2022-08-19T12:55:39;5.13;;;1.30;;
37787;SDS011;23627;53.302;-6.362;2022-08-19T12:58:10;5.72;;;1.33;;
37787;SDS011;23627;53.302;-6.362;2022-08-19T13:00:37;4.50;;;1.30;;
37787;SDS011;23627;53.302;-6.362;2022-08-19T13:03:04;4.72;;;1.50;;
37787;SDS011;23627;53.302;-6.362;2022-08-19T13:05:31;5.63;;;1.40;;
37787;SDS011;23627;53.302;-6.362;2022-08-19T13:08:01;5.63;;;1.45;;
37787;SDS011;23627;53.302;-6.362;2022-08-19T13:10:29;5.32;;;1.80;;
37787;SDS011;23627;53.302;-6.362;2022-08-19T13:12:59;6.57;;;1.60;;
37787;SDS011;23627;53.302;-6.362;2022-08-19T13:15:27;3.85;;;1.35;;
37787;SDS011;23627;53.302;-6.362;2022-08-19T13:17:53;4.53;;;1.67;;
37787;SDS011;23627;53.302;-6.362;2022-08-19T13:20:20;6.72;;;1.73;;
37787;SDS011;23627;53.302;-6.362;2022-08-19T13:22:47;4.63;;;1.40;;
37787;SDS011;23627;53.302;-6.362;2022-08-19T13:25:14;3.30;;;1.20;;
37787;SDS011;23627;53.302;-6.362;2022-08-19T13:27:42;3.42;;;1.15;;
37787;SDS011;23627;53.302;-6.362;2022-08-19T13:30:10;4.07;;;1.40;;
37787;SDS011;23627;53.302;-6.362;2022-08-19T13:32:56;5.85;;;1.50;;
37787;SDS011;23627;53.302;-6.362;2022-08-19T13:35:48;5.20;;;1.40;;
37787;SDS011;23627;53.302;-6.362;2022-08-19T13:38:22;6.40;;;1.58;;
37787;SDS011;23627;53.302;-6.362;2022-08-19T13:40:49;5.63;;;1.42;;
37787;SDS011;23627;53.302;-6.362;2022-08-19T13:43:17;5.35;;;1.50;;
37787;SDS011;23627;53.302;-6.362;2022-08-19T13:45:47;3.72;;;1.17;;
37787;SDS011;23627;53.302;-6.362;2022-08-19T13:48:14;4.47;;;1.10;;
37787;SDS011;23627;53.302;-6.362;2022-08-19T13:50:43;2.97;;;1.27;;
37787;SDS011;23627;53.302;-6.362;2022-08-19T13:53:13;3.45;;;1.20;;
37787;SDS011;23627;53.302;-6.362;2022-08-19T13:55:40;4.65;;;1.52;;
37787;SDS011;23627;53.302;-6.362;2022-08-19T13:58:07;3.60;;;1.40;;
37787;SDS011;23627;53.302;-6.362;2022-08-19T14:00:35;2.75;;;1.17;;
37787;SDS011;23627;53.302;-6.362;2022-08-19T14:03:04;2.85;;;1.10;;
37787;SDS011;23627;53.302;-6.362;2022-08-19T14:05:33;3.08;;;1.23;;
37787;SDS011;23627;53.302;-6.362;2022-08-19T14:08:00;4.30;;;1.10;;
37787;SDS011;23627;53.302;-6.362;2022-08-19T14:10:27;2.17;;;0.85;;
37787;SDS011;23627;53.302;-6.362;2022-08-19T14:12:56;2.95;;;1.00;;
37787;SDS011;23627;53.302;-6.362;2022-08-19T14:15:24;4.30;;;1.20;;
37787;SDS011;23627;53.302;-6.362;2022-08-19T14:17:52;6.10;;;1.10;;
37787;SDS011;23627;53.302;-6.362;2022-08-19T14:20:19;4.35;;;1.20;;
37787;SDS011;23627;53.302;-6.362;2022-08-19T14:22:46;5.65;;;1.00;;
37787;SDS011;23627;53.302;-6.362;2022-08-19T14:25:14;3.55;;;1.00;;
37787;SDS011;23627;53.302;-6.362;2022-08-19T14:27:48;5.85;;;1.13;;
37787;SDS011;23627;53.302;-6.362;2022-08-19T14:30:16;5.82;;;1.10;;
37787;SDS011;23627;53.302;-6.362;2022-08-19T14:32:47;6.90;;;1.63;;
37787;SDS011;23627;53.302;-6.362;2022-08-19T14:35:16;4.28;;;1.05;;
37787;SDS011;23627;53.302;-6.362;2022-08-19T14:37:43;6.82;;;1.27;;
37787;SDS011;23627;53.302;-6.362;2022-08-19T14:40:10;3.47;;;0.85;;
37787;SDS011;23627;53.302;-6.362;2022-08-19T14:42:37;4.15;;;1.30;;
37787;SDS011;23627;53.302;-6.362;2022-08-19T14:45:03;2.78;;;0.98;;
37787;SDS011;23627;53.302;-6.362;2022-08-19T14:47:32;3.85;;;1.00;;
37787;SDS011;23627;53.302;-6.362;2022-08-19T14:49:58;3.83;;;0.80;;
37787;SDS011;23627;53.302;-6.362;2022-08-19T14:52:24;3.92;;;0.80;;
37787;SDS011;23627;53.302;-6.362;2022-08-19T14:54:50;4.22;;;0.93;;
37787;SDS011;23627;53.302;-6.362;2022-08-19T14:57:16;5.47;;;1.00;;
37787;SDS011;23627;53.302;-6.362;2022-08-19T14:59:42;4.97;;;0.80;;